Ponce De Leon, MO (65728)

9:01 AM CDT on November 01, 2014 (GMT -0500)
Day Road | Change Station
CLOSE
Current Station
Personal Weather Station
Location: Walnut Shade, MO
Elevation: 1273 ft
Nearby Weather Stations
Active Advisory: Freeze Warning Active Notice: Record Report

Elev 1273 ft 36.81 °N, 93.25 °W | Updated 3 seconds ago

Partly Cloudy
Partly Cloudy
30.2 °F
Feels Like 30 °F
N
0.2
Wind Variable Wind from ENE
Gusts 1.2 mph

Today
High -- | Low -- °F
--% Chance of Precip.
Yesterday
High -- | Low -- °F
Precip. -- in
7:37 AM 6:16 PM
Waxing Gibbous, 66% visible
Pressure 30.46 in
Visibility 10.0 miles
Clouds Clear
Windchill 30 °F
Dew Point 23 °F
Humidity 73%
Rainfall 0.00 in
Snow Depth Not available.
UV 0 out of 12
Pollen .10 out of 12
Air Quality Not available.
Flu Activity Not available.
METAR KFWB 011335Z AUTO 00000KT 10SM CLR 00/M05 A3046 RMK AO2

More Conditions Fewer Conditions

Pressure 30.46 in
Visibility 10.0 miles
Clouds Clear
Windchill 30 °F
Dew Point 23 °F
Humidity 73%
Rainfall 0.00 in
Snow Depth Not available.
UV 0 out of 12
Pollen .10 out of 12
Air Quality Not available.
Flu Activity Not available.
METAR KFWB 011335Z AUTO 00000KT 10SM CLR 00/M05 A3046 RMK AO2

More Conditions Fewer Conditions

10-Day Weather Forecast

Almanac

Astronomy

Nov. 01, 2014 Rise Set
Actual Time
Civil Twilight
Nautical Twilight
Astronomical Twilight
Moon
Length of Visible Light
Length of Day
Tomorrow will be .
, % of the Moon is Illuminated

Today's Extremes

State Highs State Lows

Community

WunderPhotos

Upload Photos

1,766,944 photos uploaded!

WunderBlogs® & News

Nearby

Air Quality

  Air Quality AQ Index Pollutant
Not available.

Snow Depth

Station Depth Elevation

Earthquake Activity

City Distance Mag. Time & Date
Minimum magnitude displayed is 2.5.

Coastal Water Temperatures

Place Temperature

Nearby Weather Stations